sensor_id;sensor_type;location;lat;lon;timestamp;P1;durP1;ratioP1;P2;durP2;ratioP2
3704;SDS011;1868;48.918;9.438;2023-09-19T00:00:33;2.10;;;0.90;;
3704;SDS011;1868;48.918;9.438;2023-09-19T00:03:03;0.60;;;0.60;;
3704;SDS011;1868;48.918;9.438;2023-09-19T00:05:34;0.70;;;0.70;;
3704;SDS011;1868;48.918;9.438;2023-09-19T00:08:12;2.00;;;0.80;;
3704;SDS011;1868;48.918;9.438;2023-09-19T00:10:42;5.80;;;0.80;;
3704;SDS011;1868;48.918;9.438;2023-09-19T00:13:13;1.00;;;1.00;;
3704;SDS011;1868;48.918;9.438;2023-09-19T00:15:43;3.60;;;1.27;;
3704;SDS011;1868;48.918;9.438;2023-09-19T00:18:16;2.40;;;1.30;;
3704;SDS011;1868;48.918;9.438;2023-09-19T00:20:49;2.60;;;1.30;;
3704;SDS011;1868;48.918;9.438;2023-09-19T00:23:20;1.43;;;1.20;;
3704;SDS011;1868;48.918;9.438;2023-09-19T00:25:51;1.80;;;1.30;;
3704;SDS011;1868;48.918;9.438;2023-09-19T00:28:31;3.10;;;1.00;;
3704;SDS011;1868;48.918;9.438;2023-09-19T00:31:07;1.43;;;1.20;;
3704;SDS011;1868;48.918;9.438;2023-09-19T00:33:40;5.70;;;1.43;;
3704;SDS011;1868;48.918;9.438;2023-09-19T00:36:11;1.63;;;0.80;;
3704;SDS011;1868;48.918;9.438;2023-09-19T00:38:52;1.20;;;1.10;;
3704;SDS011;1868;48.918;9.438;2023-09-19T00:41:24;1.43;;;1.07;;
3704;SDS011;1868;48.918;9.438;2023-09-19T00:43:56;1.20;;;1.10;;
3704;SDS011;1868;48.918;9.438;2023-09-19T00:46:29;3.93;;;1.13;;
3704;SDS011;1868;48.918;9.438;2023-09-19T00:49:04;1.00;;;0.90;;
3704;SDS011;1868;48.918;9.438;2023-09-19T00:51:44;1.57;;;1.20;;
3704;SDS011;1868;48.918;9.438;2023-09-19T00:54:20;3.10;;;1.13;;
3704;SDS011;1868;48.918;9.438;2023-09-19T00:56:50;1.30;;;1.17;;
3704;SDS011;1868;48.918;9.438;2023-09-19T00:59:24;1.60;;;0.90;;
3704;SDS011;1868;48.918;9.438;2023-09-19T01:01:56;1.97;;;1.07;;
3704;SDS011;1868;48.918;9.438;2023-09-19T01:04:33;1.27;;;0.87;;
3704;SDS011;1868;48.918;9.438;2023-09-19T01:07:03;1.60;;;1.10;;
3704;SDS011;1868;48.918;9.438;2023-09-19T01:09:33;2.30;;;1.00;;
3704;SDS011;1868;48.918;9.438;2023-09-19T01:12:04;2.30;;;1.20;;
3704;SDS011;1868;48.918;9.438;2023-09-19T01:14:47;1.47;;;1.30;;
3704;SDS011;1868;48.918;9.438;2023-09-19T01:17:27;2.20;;;1.10;;
3704;SDS011;1868;48.918;9.438;2023-09-19T01:20:15;3.30;;;1.30;;
3704;SDS011;1868;48.918;9.438;2023-09-19T01:22:57;1.60;;;1.13;;
3704;SDS011;1868;48.918;9.438;2023-09-19T01:25:45;1.30;;;1.20;;
3704;SDS011;1868;48.918;9.438;2023-09-19T01:28:45;0.77;;;0.77;;
3704;SDS011;1868;48.918;9.438;2023-09-19T01:31:26;0.90;;;0.80;;
3704;SDS011;1868;48.918;9.438;2023-09-19T01:34:02;1.60;;;1.33;;
3704;SDS011;1868;48.918;9.438;2023-09-19T01:36:34;2.10;;;0.90;;
3704;SDS011;1868;48.918;9.438;2023-09-19T01:39:06;1.47;;;0.73;;
3704;SDS011;1868;48.918;9.438;2023-09-19T01:44:35;0.90;;;0.83;;
3704;SDS011;1868;48.918;9.438;2023-09-19T01:47:18;1.40;;;0.93;;
3704;SDS011;1868;48.918;9.438;2023-09-19T01:50:09;3.30;;;1.30;;
3704;SDS011;1868;48.918;9.438;2023-09-19T01:52:54;3.40;;;1.20;;
3704;SDS011;1868;48.918;9.438;2023-09-19T01:55:33;3.90;;;1.00;;
3704;SDS011;1868;48.918;9.438;2023-09-19T01:58:14;1.33;;;1.07;;
3704;SDS011;1868;48.918;9.438;2023-09-19T02:00:50;6.07;;;1.07;;
3704;SDS011;1868;48.918;9.438;2023-09-19T02:03:26;1.50;;;1.00;;
3704;SDS011;1868;48.918;9.438;2023-09-19T02:05:56;2.63;;;1.00;;
3704;SDS011;1868;48.918;9.438;2023-09-19T02:08:29;0.90;;;0.70;;
3704;SDS011;1868;48.918;9.438;2023-09-19T02:11:01;0.80;;;0.80;;
3704;SDS011;1868;48.918;9.438;2023-09-19T02:13:34;1.07;;;0.90;;
3704;SDS011;1868;48.918;9.438;2023-09-19T02:16:10;1.37;;;1.20;;
3704;SDS011;1868;48.918;9.438;2023-09-19T02:18:41;1.63;;;0.83;;
3704;SDS011;1868;48.918;9.438;2023-09-19T02:21:12;0.80;;;0.80;;
3704;SDS011;1868;48.918;9.438;2023-09-19T02:23:45;2.33;;;1.20;;
3704;SDS011;1868;48.918;9.438;2023-09-19T02:26:18;2.50;;;1.03;;
3704;SDS011;1868;48.918;9.438;2023-09-19T02:28:51;3.57;;;0.87;;
3704;SDS011;1868;48.918;9.438;2023-09-19T02:31:21;1.60;;;1.07;;
3704;SDS011;1868;48.918;9.438;2023-09-19T02:33:53;0.83;;;0.83;;
3704;SDS011;1868;48.918;9.438;2023-09-19T02:36:28;1.07;;;0.93;;
3704;SDS011;1868;48.918;9.438;2023-09-19T02:38:57;1.40;;;1.27;;
3704;SDS011;1868;48.918;9.438;2023-09-19T02:41:27;3.80;;;1.30;;
3704;SDS011;1868;48.918;9.438;2023-09-19T02:43:57;1.53;;;0.90;;
3704;SDS011;1868;48.918;9.438;2023-09-19T02:46:29;2.10;;;1.10;;
3704;SDS011;1868;48.918;9.438;2023-09-19T02:49:02;1.10;;;1.00;;
3704;SDS011;1868;48.918;9.438;2023-09-19T02:51:33;1.10;;;1.00;;
3704;SDS011;1868;48.918;9.438;2023-09-19T02:54:02;2.40;;;0.87;;
3704;SDS011;1868;48.918;9.438;2023-09-19T02:56:36;0.80;;;0.80;;
3704;SDS011;1868;48.918;9.438;2023-09-19T02:59:06;2.87;;;1.07;;
3704;SDS011;1868;48.918;9.438;2023-09-19T03:01:37;4.10;;;0.90;;
3704;SDS011;1868;48.918;9.438;2023-09-19T03:04:09;8.03;;;1.20;;
3704;SDS011;1868;48.918;9.438;2023-09-19T03:06:48;0.80;;;0.80;;
3704;SDS011;1868;48.918;9.438;2023-09-19T03:09:23;5.83;;;1.07;;
3704;SDS011;1868;48.918;9.438;2023-09-19T03:11:55;2.93;;;1.10;;
3704;SDS011;1868;48.918;9.438;2023-09-19T03:14:26;1.70;;;0.90;;
3704;SDS011;1868;48.918;9.438;2023-09-19T03:17:03;3.23;;;1.30;;
3704;SDS011;1868;48.918;9.438;2023-09-19T03:19:33;2.23;;;1.10;;
3704;SDS011;1868;48.918;9.438;2023-09-19T03:22:07;1.40;;;1.07;;
3704;SDS011;1868;48.918;9.438;2023-09-19T03:24:37;1.77;;;0.80;;
3704;SDS011;1868;48.918;9.438;2023-09-19T03:27:08;3.60;;;0.90;;
3704;SDS011;1868;48.918;9.438;2023-09-19T03:29:44;4.73;;;1.30;;
3704;SDS011;1868;48.918;9.438;2023-09-19T03:32:14;2.70;;;1.27;;
3704;SDS011;1868;48.918;9.438;2023-09-19T03:34:46;2.40;;;1.17;;
3704;SDS011;1868;48.918;9.438;2023-09-19T03:37:16;1.17;;;1.03;;
3704;SDS011;1868;48.918;9.438;2023-09-19T03:39:46;0.90;;;0.90;;
3704;SDS011;1868;48.918;9.438;2023-09-19T03:42:15;1.20;;;1.07;;
3704;SDS011;1868;48.918;9.438;2023-09-19T03:44:53;1.60;;;1.00;;
3704;SDS011;1868;48.918;9.438;2023-09-19T03:47:22;2.20;;;0.90;;
3704;SDS011;1868;48.918;9.438;2023-09-19T03:50:08;2.30;;;0.90;;
3704;SDS011;1868;48.918;9.438;2023-09-19T03:52:40;2.50;;;1.40;;
3704;SDS011;1868;48.918;9.438;2023-09-19T03:55:11;6.13;;;0.90;;
3704;SDS011;1868;48.918;9.438;2023-09-19T03:57:49;2.60;;;1.00;;
3704;SDS011;1868;48.918;9.438;2023-09-19T04:00:19;2.20;;;1.00;;
3704;SDS011;1868;48.918;9.438;2023-09-19T04:02:51;3.80;;;1.20;;
3704;SDS011;1868;48.918;9.438;2023-09-19T04:05:26;4.00;;;1.00;;
3704;SDS011;1868;48.918;9.438;2023-09-19T04:07:55;0.83;;;0.70;;
3704;SDS011;1868;48.918;9.438;2023-09-19T04:10:25;0.97;;;0.97;;
3704;SDS011;1868;48.918;9.438;2023-09-19T04:12:55;1.47;;;1.00;;
3704;SDS011;1868;48.918;9.438;2023-09-19T04:15:24;1.10;;;1.00;;
3704;SDS011;1868;48.918;9.438;2023-09-19T04:17:53;6.63;;;1.27;;
3704;SDS011;1868;48.918;9.438;2023-09-19T04:20:23;1.27;;;1.10;;
3704;SDS011;1868;48.918;9.438;2023-09-19T04:23:00;6.87;;;1.20;;
3704;SDS011;1868;48.918;9.438;2023-09-19T04:25:32;6.30;;;1.30;;
3704;SDS011;1868;48.918;9.438;2023-09-19T04:28:01;1.10;;;0.93;;
3704;SDS011;1868;48.918;9.438;2023-09-19T04:30:31;2.10;;;1.47;;
3704;SDS011;1868;48.918;9.438;2023-09-19T04:33:00;2.77;;;1.33;;
3704;SDS011;1868;48.918;9.438;2023-09-19T04:35:37;1.20;;;0.93;;
3704;SDS011;1868;48.918;9.438;2023-09-19T04:38:10;3.50;;;1.50;;
3704;SDS011;1868;48.918;9.438;2023-09-19T04:40:41;3.00;;;1.37;;
3704;SDS011;1868;48.918;9.438;2023-09-19T04:43:10;2.33;;;1.50;;
3704;SDS011;1868;48.918;9.438;2023-09-19T04:45:41;2.40;;;1.67;;
3704;SDS011;1868;48.918;9.438;2023-09-19T04:48:11;1.20;;;1.10;;
3704;SDS011;1868;48.918;9.438;2023-09-19T04:50:45;1.20;;;1.10;;
3704;SDS011;1868;48.918;9.438;2023-09-19T04:53:20;4.20;;;1.40;;
3704;SDS011;1868;48.918;9.438;2023-09-19T04:55:52;1.90;;;1.30;;
3704;SDS011;1868;48.918;9.438;2023-09-19T04:58:22;7.40;;;1.30;;
3704;SDS011;1868;48.918;9.438;2023-09-19T05:00:51;13.67;;;1.70;;
3704;SDS011;1868;48.918;9.438;2023-09-19T05:03:20;3.97;;;1.10;;
3704;SDS011;1868;48.918;9.438;2023-09-19T05:05:53;3.40;;;1.37;;
3704;SDS011;1868;48.918;9.438;2023-09-19T05:08:24;6.87;;;1.40;;
3704;SDS011;1868;48.918;9.438;2023-09-19T05:10:53;1.10;;;1.00;;
3704;SDS011;1868;48.918;9.438;2023-09-19T05:13:24;1.60;;;1.27;;
3704;SDS011;1868;48.918;9.438;2023-09-19T05:15:55;4.17;;;1.47;;
3704;SDS011;1868;48.918;9.438;2023-09-19T05:18:30;4.17;;;1.27;;
3704;SDS011;1868;48.918;9.438;2023-09-19T05:21:05;2.00;;;1.20;;
3704;SDS011;1868;48.918;9.438;2023-09-19T05:23:37;7.10;;;2.00;;
3704;SDS011;1868;48.918;9.438;2023-09-19T05:26:09;2.47;;;1.60;;
3704;SDS011;1868;48.918;9.438;2023-09-19T05:28:42;5.97;;;2.10;;
3704;SDS011;1868;48.918;9.438;2023-09-19T05:31:10;3.57;;;1.90;;
3704;SDS011;1868;48.918;9.438;2023-09-19T05:33:41;9.80;;;2.17;;
3704;SDS011;1868;48.918;9.438;2023-09-19T05:36:12;3.53;;;1.50;;
3704;SDS011;1868;48.918;9.438;2023-09-19T05:38:42;3.63;;;1.70;;
3704;SDS011;1868;48.918;9.438;2023-09-19T05:41:12;3.43;;;2.10;;
3704;SDS011;1868;48.918;9.438;2023-09-19T05:43:43;1.87;;;1.70;;
3704;SDS011;1868;48.918;9.438;2023-09-19T05:46:14;4.13;;;1.77;;
3704;SDS011;1868;48.918;9.438;2023-09-19T05:48:45;3.40;;;2.00;;
3704;SDS011;1868;48.918;9.438;2023-09-19T05:51:27;8.00;;;2.00;;
3704;SDS011;1868;48.918;9.438;2023-09-19T05:53:56;3.57;;;1.80;;
3704;SDS011;1868;48.918;9.438;2023-09-19T05:56:24;3.57;;;1.80;;
3704;SDS011;1868;48.918;9.438;2023-09-19T05:58:58;6.87;;;2.20;;
3704;SDS011;1868;48.918;9.438;2023-09-19T06:01:30;4.47;;;2.23;;
3704;SDS011;1868;48.918;9.438;2023-09-19T06:04:09;3.53;;;2.07;;
3704;SDS011;1868;48.918;9.438;2023-09-19T06:06:46;2.80;;;2.00;;
3704;SDS011;1868;48.918;9.438;2023-09-19T06:09:20;4.30;;;2.00;;
3704;SDS011;1868;48.918;9.438;2023-09-19T06:11:54;3.20;;;2.23;;
3704;SDS011;1868;48.918;9.438;2023-09-19T06:14:26;1.47;;;1.37;;
3704;SDS011;1868;48.918;9.438;2023-09-19T06:16:55;5.23;;;2.33;;
3704;SDS011;1868;48.918;9.438;2023-09-19T06:19:26;6.93;;;1.47;;
3704;SDS011;1868;48.918;9.438;2023-09-19T06:21:56;3.13;;;1.67;;
3704;SDS011;1868;48.918;9.438;2023-09-19T06:24:26;4.07;;;1.90;;
3704;SDS011;1868;48.918;9.438;2023-09-19T06:26:57;2.23;;;1.73;;
3704;SDS011;1868;48.918;9.438;2023-09-19T06:29:32;3.50;;;2.00;;
3704;SDS011;1868;48.918;9.438;2023-09-19T06:32:04;1.97;;;1.50;;
3704;SDS011;1868;48.918;9.438;2023-09-19T06:34:37;2.97;;;2.43;;
3704;SDS011;1868;48.918;9.438;2023-09-19T06:37:15;2.90;;;1.50;;
3704;SDS011;1868;48.918;9.438;2023-09-19T06:39:46;2.20;;;1.80;;
3704;SDS011;1868;48.918;9.438;2023-09-19T06:42:16;1.80;;;1.50;;
3704;SDS011;1868;48.918;9.438;2023-09-19T06:44:48;2.90;;;2.00;;
3704;SDS011;1868;48.918;9.438;2023-09-19T06:47:18;11.20;;;3.00;;
3704;SDS011;1868;48.918;9.438;2023-09-19T06:49:48;2.50;;;1.80;;
3704;SDS011;1868;48.918;9.438;2023-09-19T06:52:20;3.50;;;2.00;;
3704;SDS011;1868;48.918;9.438;2023-09-19T06:54:50;6.00;;;1.70;;
3704;SDS011;1868;48.918;9.438;2023-09-19T06:57:24;2.60;;;2.40;;
3704;SDS011;1868;48.918;9.438;2023-09-19T06:59:53;4.37;;;1.93;;
3704;SDS011;1868;48.918;9.438;2023-09-19T07:02:24;3.23;;;2.17;;
3704;SDS011;1868;48.918;9.438;2023-09-19T07:04:54;3.60;;;2.10;;
3704;SDS011;1868;48.918;9.438;2023-09-19T07:07:27;3.00;;;2.20;;
3704;SDS011;1868;48.918;9.438;2023-09-19T07:10:02;2.60;;;2.17;;
3704;SDS011;1868;48.918;9.438;2023-09-19T07:12:34;4.70;;;2.40;;
3704;SDS011;1868;48.918;9.438;2023-09-19T07:15:05;2.10;;;1.73;;
3704;SDS011;1868;48.918;9.438;2023-09-19T07:17:39;6.50;;;2.40;;
3704;SDS011;1868;48.918;9.438;2023-09-19T07:20:11;3.50;;;2.13;;
3704;SDS011;1868;48.918;9.438;2023-09-19T07:22:46;6.80;;;2.40;;
3704;SDS011;1868;48.918;9.438;2023-09-19T07:25:17;4.07;;;1.90;;
3704;SDS011;1868;48.918;9.438;2023-09-19T07:27:46;3.50;;;2.17;;
3704;SDS011;1868;48.918;9.438;2023-09-19T07:30:15;1.73;;;1.63;;
3704;SDS011;1868;48.918;9.438;2023-09-19T07:32:46;1.93;;;1.77;;
3704;SDS011;1868;48.918;9.438;2023-09-19T07:35:17;2.07;;;1.50;;
3704;SDS011;1868;48.918;9.438;2023-09-19T07:37:51;2.63;;;1.70;;
3704;SDS011;1868;48.918;9.438;2023-09-19T07:40:22;3.30;;;2.00;;
3704;SDS011;1868;48.918;9.438;2023-09-19T07:42:53;3.70;;;2.13;;
3704;SDS011;1868;48.918;9.438;2023-09-19T07:45:23;2.87;;;1.53;;
3704;SDS011;1868;48.918;9.438;2023-09-19T07:47:58;5.27;;;1.80;;
3704;SDS011;1868;48.918;9.438;2023-09-19T07:50:33;4.83;;;1.40;;
3704;SDS011;1868;48.918;9.438;2023-09-19T07:53:08;4.03;;;1.60;;
3704;SDS011;1868;48.918;9.438;2023-09-19T07:55:41;4.83;;;1.97;;
3704;SDS011;1868;48.918;9.438;2023-09-19T07:58:15;3.80;;;1.70;;
3704;SDS011;1868;48.918;9.438;2023-09-19T08:00:46;3.80;;;1.40;;
3704;SDS011;1868;48.918;9.438;2023-09-19T08:03:15;3.17;;;1.57;;
3704;SDS011;1868;48.918;9.438;2023-09-19T08:05:46;4.63;;;1.43;;
3704;SDS011;1868;48.918;9.438;2023-09-19T08:08:18;8.00;;;1.87;;
3704;SDS011;1868;48.918;9.438;2023-09-19T08:11:15;5.73;;;1.53;;
3704;SDS011;1868;48.918;9.438;2023-09-19T08:13:47;2.90;;;1.30;;
3704;SDS011;1868;48.918;9.438;2023-09-19T08:16:19;5.20;;;1.80;;
3704;SDS011;1868;48.918;9.438;2023-09-19T08:18:51;3.70;;;1.67;;
3704;SDS011;1868;48.918;9.438;2023-09-19T08:21:24;2.47;;;1.17;;
3704;SDS011;1868;48.918;9.438;2023-09-19T08:23:57;2.13;;;1.00;;
3704;SDS011;1868;48.918;9.438;2023-09-19T08:26:27;6.43;;;1.60;;
3704;SDS011;1868;48.918;9.438;2023-09-19T08:28:58;3.00;;;1.37;;
3704;SDS011;1868;48.918;9.438;2023-09-19T08:31:33;3.93;;;1.77;;
3704;SDS011;1868;48.918;9.438;2023-09-19T08:34:04;2.00;;;1.33;;
3704;SDS011;1868;48.918;9.438;2023-09-19T08:36:33;4.73;;;1.90;;
3704;SDS011;1868;48.918;9.438;2023-09-19T08:39:05;2.83;;;1.10;;
3704;SDS011;1868;48.918;9.438;2023-09-19T08:41:36;2.20;;;1.20;;
3704;SDS011;1868;48.918;9.438;2023-09-19T08:44:11;2.10;;;1.23;;
3704;SDS011;1868;48.918;9.438;2023-09-19T08:46:42;1.40;;;1.00;;
3704;SDS011;1868;48.918;9.438;2023-09-19T08:49:16;2.87;;;1.27;;
3704;SDS011;1868;48.918;9.438;2023-09-19T08:52:00;1.97;;;1.10;;
3704;SDS011;1868;48.918;9.438;2023-09-19T08:54:42;2.63;;;1.10;;
3704;SDS011;1868;48.918;9.438;2023-09-19T08:57:13;3.33;;;1.23;;
3704;SDS011;1868;48.918;9.438;2023-09-19T08:59:49;3.87;;;1.00;;
3704;SDS011;1868;48.918;9.438;2023-09-19T09:02:19;1.83;;;1.23;;
3704;SDS011;1868;48.918;9.438;2023-09-19T09:04:56;2.20;;;0.90;;
3704;SDS011;1868;48.918;9.438;2023-09-19T09:07:26;4.90;;;1.07;;
3704;SDS011;1868;48.918;9.438;2023-09-19T09:09:59;2.43;;;0.83;;
3704;SDS011;1868;48.918;9.438;2023-09-19T09:12:29;1.47;;;1.20;;
3704;SDS011;1868;48.918;9.438;2023-09-19T09:15:07;1.20;;;0.90;;
3704;SDS011;1868;48.918;9.438;2023-09-19T09:17:43;1.43;;;1.10;;
3704;SDS011;1868;48.918;9.438;2023-09-19T09:20:17;1.80;;;0.90;;
3704;SDS011;1868;48.918;9.438;2023-09-19T09:22:51;1.10;;;1.00;;
3704;SDS011;1868;48.918;9.438;2023-09-19T09:25:22;2.53;;;1.03;;
3704;SDS011;1868;48.918;9.438;2023-09-19T09:28:19;2.60;;;1.10;;
3704;SDS011;1868;48.918;9.438;2023-09-19T09:30:51;1.27;;;1.17;;
3704;SDS011;1868;48.918;9.438;2023-09-19T09:33:23;1.90;;;1.23;;
3704;SDS011;1868;48.918;9.438;2023-09-19T09:35:58;1.80;;;1.33;;
3704;SDS011;1868;48.918;9.438;2023-09-19T09:38:30;2.50;;;1.60;;
3704;SDS011;1868;48.918;9.438;2023-09-19T09:41:16;2.47;;;1.27;;
3704;SDS011;1868;48.918;9.438;2023-09-19T09:43:54;1.57;;;1.17;;
3704;SDS011;1868;48.918;9.438;2023-09-19T09:46:28;2.07;;;1.60;;
3704;SDS011;1868;48.918;9.438;2023-09-19T09:49:18;6.47;;;1.30;;
3704;SDS011;1868;48.918;9.438;2023-09-19T09:52:02;2.50;;;1.33;;
3704;SDS011;1868;48.918;9.438;2023-09-19T09:54:37;5.33;;;1.10;;
3704;SDS011;1868;48.918;9.438;2023-09-19T09:57:34;3.43;;;1.30;;
3704;SDS011;1868;48.918;9.438;2023-09-19T10:00:03;2.20;;;1.17;;
3704;SDS011;1868;48.918;9.438;2023-09-19T10:02:46;2.00;;;1.13;;
3704;SDS011;1868;48.918;9.438;2023-09-19T10:05:18;2.60;;;1.37;;
3704;SDS011;1868;48.918;9.438;2023-09-19T10:07:56;3.23;;;1.40;;
3704;SDS011;1868;48.918;9.438;2023-09-19T10:10:48;1.30;;;1.20;;
3704;SDS011;1868;48.918;9.438;2023-09-19T10:13:34;1.23;;;0.93;;
3704;SDS011;1868;48.918;9.438;2023-09-19T10:16:11;2.57;;;1.23;;
3704;SDS011;1868;48.918;9.438;2023-09-19T10:18:42;2.70;;;1.43;;
3704;SDS011;1868;48.918;9.438;2023-09-19T10:21:16;1.17;;;0.97;;
3704;SDS011;1868;48.918;9.438;2023-09-19T10:23:51;1.27;;;1.17;;
3704;SDS011;1868;48.918;9.438;2023-09-19T10:26:23;2.47;;;1.20;;
3704;SDS011;1868;48.918;9.438;2023-09-19T10:28:59;1.20;;;1.10;;
3704;SDS011;1868;48.918;9.438;2023-09-19T10:31:38;2.20;;;1.07;;
3704;SDS011;1868;48.918;9.438;2023-09-19T10:34:14;3.60;;;1.13;;
3704;SDS011;1868;48.918;9.438;2023-09-19T10:36:48;1.50;;;1.37;;
3704;SDS011;1868;48.918;9.438;2023-09-19T10:39:21;1.80;;;1.60;;
3704;SDS011;1868;48.918;9.438;2023-09-19T10:41:53;1.47;;;1.20;;
3704;SDS011;1868;48.918;9.438;2023-09-19T10:44:27;2.03;;;1.30;;
3704;SDS011;1868;48.918;9.438;2023-09-19T10:47:00;1.33;;;1.00;;
3704;SDS011;1868;48.918;9.438;2023-09-19T10:49:34;1.90;;;1.13;;
3704;SDS011;1868;48.918;9.438;2023-09-19T10:52:14;2.10;;;1.63;;
3704;SDS011;1868;48.918;9.438;2023-09-19T10:54:53;6.20;;;1.10;;
3704;SDS011;1868;48.918;9.438;2023-09-19T10:57:29;1.97;;;1.10;;
3704;SDS011;1868;48.918;9.438;2023-09-19T11:00:06;4.90;;;1.53;;
3704;SDS011;1868;48.918;9.438;2023-09-19T11:06:02;1.83;;;1.10;;
3704;SDS011;1868;48.918;9.438;2023-09-19T11:08:50;6.53;;;1.30;;
3704;SDS011;1868;48.918;9.438;2023-09-19T11:11:39;1.20;;;1.00;;
3704;SDS011;1868;48.918;9.438;2023-09-19T11:14:30;1.33;;;1.03;;
3704;SDS011;1868;48.918;9.438;2023-09-19T11:17:32;0.93;;;0.87;;
3704;SDS011;1868;48.918;9.438;2023-09-19T11:23:21;2.47;;;1.13;;
3704;SDS011;1868;48.918;9.438;2023-09-19T11:25:55;1.10;;;1.00;;
3704;SDS011;1868;48.918;9.438;2023-09-19T11:28:29;1.53;;;1.10;;
3704;SDS011;1868;48.918;9.438;2023-09-19T11:30:59;1.30;;;1.03;;
3704;SDS011;1868;48.918;9.438;2023-09-19T11:40:38;3.37;;;1.00;;
3704;SDS011;1868;48.918;9.438;2023-09-19T11:46:08;3.73;;;1.70;;
3704;SDS011;1868;48.918;9.438;2023-09-19T11:48:39;1.37;;;1.27;;
3704;SDS011;1868;48.918;9.438;2023-09-19T11:51:14;2.73;;;1.30;;
3704;SDS011;1868;48.918;9.438;2023-09-19T11:53:50;2.10;;;1.10;;
3704;SDS011;1868;48.918;9.438;2023-09-19T11:56:21;2.00;;;1.30;;
3704;SDS011;1868;48.918;9.438;2023-09-19T11:58:54;2.23;;;1.27;;
3704;SDS011;1868;48.918;9.438;2023-09-19T12:01:25;1.70;;;1.10;;
3704;SDS011;1868;48.918;9.438;2023-09-19T12:04:01;2.70;;;1.20;;
3704;SDS011;1868;48.918;9.438;2023-09-19T12:06:31;2.90;;;1.17;;
3704;SDS011;1868;48.918;9.438;2023-09-19T12:09:00;2.07;;;1.10;;
3704;SDS011;1868;48.918;9.438;2023-09-19T12:11:33;3.63;;;1.50;;
3704;SDS011;1868;48.918;9.438;2023-09-19T12:14:11;1.07;;;1.07;;
3704;SDS011;1868;48.918;9.438;2023-09-19T12:16:51;7.80;;;1.00;;
3704;SDS011;1868;48.918;9.438;2023-09-19T12:19:25;2.50;;;0.90;;
3704;SDS011;1868;48.918;9.438;2023-09-19T12:21:56;2.40;;;1.17;;
3704;SDS011;1868;48.918;9.438;2023-09-19T12:24:31;1.13;;;0.87;;
3704;SDS011;1868;48.918;9.438;2023-09-19T12:27:04;3.33;;;1.07;;
3704;SDS011;1868;48.918;9.438;2023-09-19T12:29:42;1.23;;;0.80;;
3704;SDS011;1868;48.918;9.438;2023-09-19T12:32:15;1.13;;;0.90;;
3704;SDS011;1868;48.918;9.438;2023-09-19T12:34:52;3.73;;;1.10;;
3704;SDS011;1868;48.918;9.438;2023-09-19T12:37:22;2.13;;;1.30;;
3704;SDS011;1868;48.918;9.438;2023-09-19T12:40:03;1.33;;;1.07;;
3704;SDS011;1868;48.918;9.438;2023-09-19T12:42:44;2.80;;;1.20;;
3704;SDS011;1868;48.918;9.438;2023-09-19T12:45:14;2.33;;;1.20;;
3704;SDS011;1868;48.918;9.438;2023-09-19T12:51:01;2.20;;;1.33;;
3704;SDS011;1868;48.918;9.438;2023-09-19T12:53:33;1.20;;;1.10;;
3704;SDS011;1868;48.918;9.438;2023-09-19T12:56:08;3.17;;;1.30;;
3704;SDS011;1868;48.918;9.438;2023-09-19T12:58:50;4.10;;;1.10;;
3704;SDS011;1868;48.918;9.438;2023-09-19T13:01:21;3.17;;;1.43;;
3704;SDS011;1868;48.918;9.438;2023-09-19T13:04:10;1.20;;;1.10;;
3704;SDS011;1868;48.918;9.438;2023-09-19T13:06:49;1.93;;;1.27;;
3704;SDS011;1868;48.918;9.438;2023-09-19T13:09:18;4.33;;;1.17;;
3704;SDS011;1868;48.918;9.438;2023-09-19T13:11:51;1.10;;;1.00;;
3704;SDS011;1868;48.918;9.438;2023-09-19T13:14:26;2.97;;;1.40;;
3704;SDS011;1868;48.918;9.438;2023-09-19T13:16:59;1.93;;;1.30;;
3704;SDS011;1868;48.918;9.438;2023-09-19T13:19:39;1.63;;;1.13;;
3704;SDS011;1868;48.918;9.438;2023-09-19T13:25:13;2.03;;;1.27;;
3704;SDS011;1868;48.918;9.438;2023-09-19T13:27:47;2.47;;;1.10;;
3704;SDS011;1868;48.918;9.438;2023-09-19T13:30:22;1.20;;;1.10;;
3704;SDS011;1868;48.918;9.438;2023-09-19T13:33:04;1.10;;;1.00;;
3704;SDS011;1868;48.918;9.438;2023-09-19T13:35:35;1.43;;;0.90;;
3704;SDS011;1868;48.918;9.438;2023-09-19T13:38:11;1.33;;;1.13;;
3704;SDS011;1868;48.918;9.438;2023-09-19T13:40:41;1.97;;;1.23;;
3704;SDS011;1868;48.918;9.438;2023-09-19T13:43:13;1.63;;;1.30;;
3704;SDS011;1868;48.918;9.438;2023-09-19T13:45:43;6.50;;;1.03;;
3704;SDS011;1868;48.918;9.438;2023-09-19T13:48:15;1.90;;;0.60;;
3704;SDS011;1868;48.918;9.438;2023-09-19T13:50:48;2.83;;;0.80;;
3704;SDS011;1868;48.918;9.438;2023-09-19T13:53:25;0.97;;;0.97;;
3704;SDS011;1868;48.918;9.438;2023-09-19T13:55:56;3.20;;;1.20;;
3704;SDS011;1868;48.918;9.438;2023-09-19T13:58:25;3.27;;;1.27;;
3704;SDS011;1868;48.918;9.438;2023-09-19T14:00:56;3.60;;;1.00;;
3704;SDS011;1868;48.918;9.438;2023-09-19T14:03:35;1.17;;;0.83;;
3704;SDS011;1868;48.918;9.438;2023-09-19T14:06:05;2.83;;;1.23;;
3704;SDS011;1868;48.918;9.438;2023-09-19T14:08:35;2.83;;;1.20;;
3704;SDS011;1868;48.918;9.438;2023-09-19T14:11:05;2.80;;;1.20;;
3704;SDS011;1868;48.918;9.438;2023-09-19T14:13:36;1.37;;;1.27;;
3704;SDS011;1868;48.918;9.438;2023-09-19T14:16:05;4.00;;;1.53;;
3704;SDS011;1868;48.918;9.438;2023-09-19T14:18:35;3.10;;;0.93;;
3704;SDS011;1868;48.918;9.438;2023-09-19T14:21:06;1.20;;;1.20;;
3704;SDS011;1868;48.918;9.438;2023-09-19T14:23:39;3.40;;;1.13;;
3704;SDS011;1868;48.918;9.438;2023-09-19T14:26:09;1.83;;;1.10;;
3704;SDS011;1868;48.918;9.438;2023-09-19T14:28:42;0.80;;;0.80;;
3704;SDS011;1868;48.918;9.438;2023-09-19T14:31:13;1.93;;;1.00;;
3704;SDS011;1868;48.918;9.438;2023-09-19T14:33:44;2.80;;;1.50;;
3704;SDS011;1868;48.918;9.438;2023-09-19T14:36:16;3.20;;;1.20;;
3704;SDS011;1868;48.918;9.438;2023-09-19T14:38:48;4.87;;;3.10;;
3704;SDS011;1868;48.918;9.438;2023-09-19T14:41:21;4.47;;;1.73;;
3704;SDS011;1868;48.918;9.438;2023-09-19T14:43:52;4.30;;;1.60;;
3704;SDS011;1868;48.918;9.438;2023-09-19T14:46:22;2.70;;;1.10;;
3704;SDS011;1868;48.918;9.438;2023-09-19T14:48:53;1.90;;;1.40;;
3704;SDS011;1868;48.918;9.438;2023-09-19T14:51:22;7.63;;;1.20;;
3704;SDS011;1868;48.918;9.438;2023-09-19T14:53:56;1.30;;;1.20;;
3704;SDS011;1868;48.918;9.438;2023-09-19T14:56:24;3.10;;;1.30;;
3704;SDS011;1868;48.918;9.438;2023-09-19T14:58:56;2.60;;;1.40;;
3704;SDS011;1868;48.918;9.438;2023-09-19T15:01:27;1.53;;;1.00;;
3704;SDS011;1868;48.918;9.438;2023-09-19T15:04:01;3.33;;;1.53;;
3704;SDS011;1868;48.918;9.438;2023-09-19T15:06:32;2.93;;;1.10;;
3704;SDS011;1868;48.918;9.438;2023-09-19T15:09:06;2.00;;;1.10;;
3704;SDS011;1868;48.918;9.438;2023-09-19T15:11:36;3.03;;;1.00;;
3704;SDS011;1868;48.918;9.438;2023-09-19T15:14:08;3.17;;;1.60;;
3704;SDS011;1868;48.918;9.438;2023-09-19T15:16:38;3.03;;;1.10;;
3704;SDS011;1868;48.918;9.438;2023-09-19T15:19:10;3.33;;;1.20;;
3704;SDS011;1868;48.918;9.438;2023-09-19T15:21:39;2.00;;;1.13;;
3704;SDS011;1868;48.918;9.438;2023-09-19T15:24:09;2.13;;;1.10;;
3704;SDS011;1868;48.918;9.438;2023-09-19T15:26:38;1.10;;;1.10;;
3704;SDS011;1868;48.918;9.438;2023-09-19T15:29:07;1.63;;;1.20;;
3704;SDS011;1868;48.918;9.438;2023-09-19T15:31:38;3.17;;;1.40;;
3704;SDS011;1868;48.918;9.438;2023-09-19T15:34:08;4.00;;;1.37;;
3704;SDS011;1868;48.918;9.438;2023-09-19T15:36:44;1.67;;;1.43;;
3704;SDS011;1868;48.918;9.438;2023-09-19T15:39:19;1.20;;;1.10;;
3704;SDS011;1868;48.918;9.438;2023-09-19T15:41:49;1.33;;;1.23;;
3704;SDS011;1868;48.918;9.438;2023-09-19T15:44:18;10.97;;;1.27;;
3704;SDS011;1868;48.918;9.438;2023-09-19T15:46:48;3.43;;;1.17;;
3704;SDS011;1868;48.918;9.438;2023-09-19T15:49:18;1.13;;;1.13;;
3704;SDS011;1868;48.918;9.438;2023-09-19T15:51:47;1.40;;;1.20;;
3704;SDS011;1868;48.918;9.438;2023-09-19T15:54:18;2.37;;;2.07;;
3704;SDS011;1868;48.918;9.438;2023-09-19T15:56:47;1.57;;;1.47;;
3704;SDS011;1868;48.918;9.438;2023-09-19T15:59:21;1.20;;;1.10;;
3704;SDS011;1868;48.918;9.438;2023-09-19T16:01:50;3.47;;;1.30;;
3704;SDS011;1868;48.918;9.438;2023-09-19T16:04:21;1.97;;;1.23;;
3704;SDS011;1868;48.918;9.438;2023-09-19T16:06:50;4.00;;;1.20;;
3704;SDS011;1868;48.918;9.438;2023-09-19T16:09:21;1.00;;;1.00;;
3704;SDS011;1868;48.918;9.438;2023-09-19T16:11:52;2.00;;;1.10;;
3704;SDS011;1868;48.918;9.438;2023-09-19T16:14:22;2.77;;;1.07;;
3704;SDS011;1868;48.918;9.438;2023-09-19T16:16:56;1.03;;;1.03;;
3704;SDS011;1868;48.918;9.438;2023-09-19T16:19:26;9.10;;;1.20;;